Terminal Aerodrome Forecast
Issued by NWS

Current Version | Previous Version | Text Only | Print | Product List | Glossary On
Versions: 1 2 3 4 5 6 7 8 9 10 11 12 13 14 15 16 17 18 19 20 21 22 23 24 25 26 27 28
000
FTUS43 KGLD 012156 AAA
TAFMCK
TAF AMD
KMCK 012156Z 0122/0218 36018G25KT P6SM BKN100
     FM020200 36024G32KT P6SM VCTS OVC100CB
      TEMPO 0203/0205 -TSRA
     FM020600 02020G30KT P6SM SCT011 OVC100
     FM020800 02015KT P6SM SCT011
     FM021100 35007KT P6SM SCT200=

USA.gov is the U.S. government's official web portal to all federal, state and local government web resources and services.